sensor_id;sensor_type;location;lat;lon;timestamp;temperature;humidity
3919;DHT22;1974;48.670;8.994;2022-10-16T00:00:45;15.10;99.90
3919;DHT22;1974;48.670;8.994;2022-10-16T00:03:12;15.10;99.90
3919;DHT22;1974;48.670;8.994;2022-10-16T00:05:40;15.10;99.90
3919;DHT22;1974;48.670;8.994;2022-10-16T00:08:07;15.00;99.90
3919;DHT22;1974;48.670;8.994;2022-10-16T00:10:34;15.00;99.90
3919;DHT22;1974;48.670;8.994;2022-10-16T00:13:03;15.00;99.90
3919;DHT22;1974;48.670;8.994;2022-10-16T00:15:30;14.90;99.90
3919;DHT22;1974;48.670;8.994;2022-10-16T00:17:56;14.90;99.90
3919;DHT22;1974;48.670;8.994;2022-10-16T00:20:23;14.90;99.90
3919;DHT22;1974;48.670;8.994;2022-10-16T00:22:50;14.90;99.90
3919;DHT22;1974;48.670;8.994;2022-10-16T00:25:17;14.80;99.90
3919;DHT22;1974;48.670;8.994;2022-10-16T00:27:44;14.80;99.90
3919;DHT22;1974;48.670;8.994;2022-10-16T00:30:12;14.80;99.90
3919;DHT22;1974;48.670;8.994;2022-10-16T00:32:39;14.80;99.90
3919;DHT22;1974;48.670;8.994;2022-10-16T00:35:06;14.70;99.90
3919;DHT22;1974;48.670;8.994;2022-10-16T00:37:33;14.70;99.90
3919;DHT22;1974;48.670;8.994;2022-10-16T00:39:59;14.70;99.90
3919;DHT22;1974;48.670;8.994;2022-10-16T00:42:26;14.70;99.90
3919;DHT22;1974;48.670;8.994;2022-10-16T00:44:54;14.70;99.90
3919;DHT22;1974;48.670;8.994;2022-10-16T00:47:27;14.70;99.90
3919;DHT22;1974;48.670;8.994;2022-10-16T00:49:59;14.70;99.90
3919;DHT22;1974;48.670;8.994;2022-10-16T00:52:26;14.70;99.90
3919;DHT22;1974;48.670;8.994;2022-10-16T00:54:53;14.70;99.90
3919;DHT22;1974;48.670;8.994;2022-10-16T00:57:21;14.70;99.90
3919;DHT22;1974;48.670;8.994;2022-10-16T00:59:47;14.70;99.90
3919;DHT22;1974;48.670;8.994;2022-10-16T01:02:16;14.70;99.90
3919;DHT22;1974;48.670;8.994;2022-10-16T01:04:48;14.70;99.90
3919;DHT22;1974;48.670;8.994;2022-10-16T01:07:23;14.70;99.90
3919;DHT22;1974;48.670;8.994;2022-10-16T01:10:01;14.70;99.90
3919;DHT22;1974;48.670;8.994;2022-10-16T01:12:37;14.70;99.90
3919;DHT22;1974;48.670;8.994;2022-10-16T01:15:10;14.70;99.90
3919;DHT22;1974;48.670;8.994;2022-10-16T01:17:43;14.70;99.90
3919;DHT22;1974;48.670;8.994;2022-10-16T01:20:20;14.70;99.90
3919;DHT22;1974;48.670;8.994;2022-10-16T01:22:59;14.70;99.90
3919;DHT22;1974;48.670;8.994;2022-10-16T01:25:37;14.80;99.90
3919;DHT22;1974;48.670;8.994;2022-10-16T01:28:09;14.80;99.90
3919;DHT22;1974;48.670;8.994;2022-10-16T01:30:37;14.70;99.90
3919;DHT22;1974;48.670;8.994;2022-10-16T01:33:12;14.70;99.90
3919;DHT22;1974;48.670;8.994;2022-10-16T01:35:43;14.70;99.90
3919;DHT22;1974;48.670;8.994;2022-10-16T01:38:15;14.70;99.90
3919;DHT22;1974;48.670;8.994;2022-10-16T01:40:48;14.70;99.90
3919;DHT22;1974;48.670;8.994;2022-10-16T01:43:20;14.70;99.90
3919;DHT22;1974;48.670;8.994;2022-10-16T01:45:48;14.70;99.90
3919;DHT22;1974;48.670;8.994;2022-10-16T01:48:18;14.70;99.90
3919;DHT22;1974;48.670;8.994;2022-10-16T01:50:56;14.70;99.90
3919;DHT22;1974;48.670;8.994;2022-10-16T01:53:24;14.70;99.90
3919;DHT22;1974;48.670;8.994;2022-10-16T01:55:52;14.70;99.90
3919;DHT22;1974;48.670;8.994;2022-10-16T01:58:23;14.70;99.90
3919;DHT22;1974;48.670;8.994;2022-10-16T02:00:52;14.70;99.90
3919;DHT22;1974;48.670;8.994;2022-10-16T02:03:20;14.70;99.90
3919;DHT22;1974;48.670;8.994;2022-10-16T02:05:51;14.80;99.90
3919;DHT22;1974;48.670;8.994;2022-10-16T02:08:20;14.80;99.90
3919;DHT22;1974;48.670;8.994;2022-10-16T02:10:47;14.80;99.90
3919;DHT22;1974;48.670;8.994;2022-10-16T02:13:17;14.90;99.90
3919;DHT22;1974;48.670;8.994;2022-10-16T02:15:47;14.90;99.90
3919;DHT22;1974;48.670;8.994;2022-10-16T02:18:14;14.90;99.90
3919;DHT22;1974;48.670;8.994;2022-10-16T02:20:46;15.00;99.90
3919;DHT22;1974;48.670;8.994;2022-10-16T02:23:27;15.00;99.90
3919;DHT22;1974;48.670;8.994;2022-10-16T02:25:57;14.90;99.90
3919;DHT22;1974;48.670;8.994;2022-10-16T02:28:28;14.90;99.90
3919;DHT22;1974;48.670;8.994;2022-10-16T02:31:04;14.90;99.90
3919;DHT22;1974;48.670;8.994;2022-10-16T02:33:32;14.90;99.90
3919;DHT22;1974;48.670;8.994;2022-10-16T02:35:59;14.90;99.90
3919;DHT22;1974;48.670;8.994;2022-10-16T02:38:27;14.90;99.90
3919;DHT22;1974;48.670;8.994;2022-10-16T02:40:55;14.90;99.90
3919;DHT22;1974;48.670;8.994;2022-10-16T02:43:22;14.80;99.90
3919;DHT22;1974;48.670;8.994;2022-10-16T02:45:49;14.80;99.90
3919;DHT22;1974;48.670;8.994;2022-10-16T02:48:17;14.80;99.90
3919;DHT22;1974;48.670;8.994;2022-10-16T02:50:44;14.80;99.90
3919;DHT22;1974;48.670;8.994;2022-10-16T02:53:11;14.80;99.90
3919;DHT22;1974;48.670;8.994;2022-10-16T02:55:38;14.90;99.90
3919;DHT22;1974;48.670;8.994;2022-10-16T02:58:04;14.90;99.90
3919;DHT22;1974;48.670;8.994;2022-10-16T03:00:31;14.90;99.90
3919;DHT22;1974;48.670;8.994;2022-10-16T03:02:58;14.90;99.90
3919;DHT22;1974;48.670;8.994;2022-10-16T03:05:26;14.90;99.90
3919;DHT22;1974;48.670;8.994;2022-10-16T03:07:53;14.90;99.90
3919;DHT22;1974;48.670;8.994;2022-10-16T03:10:19;14.90;99.90
3919;DHT22;1974;48.670;8.994;2022-10-16T03:12:46;14.90;99.90
3919;DHT22;1974;48.670;8.994;2022-10-16T03:15:13;14.80;99.90
3919;DHT22;1974;48.670;8.994;2022-10-16T03:17:40;14.80;99.90
3919;DHT22;1974;48.670;8.994;2022-10-16T03:20:07;14.80;99.90
3919;DHT22;1974;48.670;8.994;2022-10-16T03:22:35;14.80;99.90
3919;DHT22;1974;48.670;8.994;2022-10-16T03:25:02;14.80;99.90
3919;DHT22;1974;48.670;8.994;2022-10-16T03:27:29;14.80;99.90
3919;DHT22;1974;48.670;8.994;2022-10-16T03:29:56;14.80;99.90
3919;DHT22;1974;48.670;8.994;2022-10-16T03:32:22;14.80;99.90
3919;DHT22;1974;48.670;8.994;2022-10-16T03:34:50;14.80;99.90
3919;DHT22;1974;48.670;8.994;2022-10-16T03:37:18;14.90;99.90
3919;DHT22;1974;48.670;8.994;2022-10-16T03:39:46;14.80;99.90
3919;DHT22;1974;48.670;8.994;2022-10-16T03:42:13;14.80;99.90
3919;DHT22;1974;48.670;8.994;2022-10-16T03:44:40;14.80;99.90
3919;DHT22;1974;48.670;8.994;2022-10-16T03:47:06;14.80;99.90
3919;DHT22;1974;48.670;8.994;2022-10-16T03:49:33;14.80;99.90
3919;DHT22;1974;48.670;8.994;2022-10-16T03:52:00;14.80;99.90
3919;DHT22;1974;48.670;8.994;2022-10-16T03:54:26;14.80;99.90
3919;DHT22;1974;48.670;8.994;2022-10-16T03:56:55;14.80;99.90
3919;DHT22;1974;48.670;8.994;2022-10-16T03:59:21;14.80;99.90
3919;DHT22;1974;48.670;8.994;2022-10-16T04:01:48;14.80;99.90
3919;DHT22;1974;48.670;8.994;2022-10-16T04:04:15;14.80;99.90
3919;DHT22;1974;48.670;8.994;2022-10-16T04:06:42;14.80;99.90
3919;DHT22;1974;48.670;8.994;2022-10-16T04:09:08;14.80;99.90
3919;DHT22;1974;48.670;8.994;2022-10-16T04:11:35;14.90;99.90
3919;DHT22;1974;48.670;8.994;2022-10-16T04:14:03;14.80;99.90
3919;DHT22;1974;48.670;8.994;2022-10-16T04:16:30;14.80;99.90
3919;DHT22;1974;48.670;8.994;2022-10-16T04:18:57;14.80;99.90
3919;DHT22;1974;48.670;8.994;2022-10-16T04:21:23;14.80;99.90
3919;DHT22;1974;48.670;8.994;2022-10-16T04:23:50;14.80;99.90
3919;DHT22;1974;48.670;8.994;2022-10-16T04:26:17;14.80;99.90
3919;DHT22;1974;48.670;8.994;2022-10-16T04:28:44;14.80;99.90
3919;DHT22;1974;48.670;8.994;2022-10-16T04:31:12;14.80;99.90
3919;DHT22;1974;48.670;8.994;2022-10-16T04:33:40;14.80;99.90
3919;DHT22;1974;48.670;8.994;2022-10-16T04:36:08;14.80;99.90
3919;DHT22;1974;48.670;8.994;2022-10-16T04:38:35;14.80;99.90
3919;DHT22;1974;48.670;8.994;2022-10-16T04:41:03;14.80;99.90
3919;DHT22;1974;48.670;8.994;2022-10-16T04:43:29;14.80;99.90
3919;DHT22;1974;48.670;8.994;2022-10-16T04:45:56;14.80;99.90
3919;DHT22;1974;48.670;8.994;2022-10-16T04:48:24;14.80;99.90
3919;DHT22;1974;48.670;8.994;2022-10-16T04:50:51;14.80;99.90
3919;DHT22;1974;48.670;8.994;2022-10-16T04:53:18;14.80;99.90
3919;DHT22;1974;48.670;8.994;2022-10-16T04:55:45;14.80;99.90
3919;DHT22;1974;48.670;8.994;2022-10-16T04:58:12;14.80;99.90
3919;DHT22;1974;48.670;8.994;2022-10-16T05:00:38;14.80;99.90
3919;DHT22;1974;48.670;8.994;2022-10-16T05:03:05;14.80;99.90
3919;DHT22;1974;48.670;8.994;2022-10-16T05:05:35;14.80;99.90
3919;DHT22;1974;48.670;8.994;2022-10-16T05:08:02;14.80;99.90
3919;DHT22;1974;48.670;8.994;2022-10-16T05:10:29;14.80;99.90
3919;DHT22;1974;48.670;8.994;2022-10-16T05:12:56;14.80;99.90
3919;DHT22;1974;48.670;8.994;2022-10-16T05:15:23;14.80;99.90
3919;DHT22;1974;48.670;8.994;2022-10-16T05:17:52;14.80;99.90
3919;DHT22;1974;48.670;8.994;2022-10-16T05:20:19;14.70;99.90
3919;DHT22;1974;48.670;8.994;2022-10-16T05:22:47;14.70;99.90
3919;DHT22;1974;48.670;8.994;2022-10-16T05:25:14;14.60;99.90
3919;DHT22;1974;48.670;8.994;2022-10-16T05:27:41;14.60;99.90
3919;DHT22;1974;48.670;8.994;2022-10-16T05:30:08;14.60;99.90
3919;DHT22;1974;48.670;8.994;2022-10-16T05:32:35;14.60;99.90
3919;DHT22;1974;48.670;8.994;2022-10-16T05:35:02;14.50;99.90
3919;DHT22;1974;48.670;8.994;2022-10-16T05:37:29;14.50;99.90
3919;DHT22;1974;48.670;8.994;2022-10-16T05:39:57;14.50;99.90
3919;DHT22;1974;48.670;8.994;2022-10-16T05:42:24;14.50;99.90
3919;DHT22;1974;48.670;8.994;2022-10-16T05:44:50;14.50;99.90
3919;DHT22;1974;48.670;8.994;2022-10-16T05:47:17;14.50;99.90
3919;DHT22;1974;48.670;8.994;2022-10-16T05:49:46;14.50;99.90
3919;DHT22;1974;48.670;8.994;2022-10-16T05:52:13;14.50;99.90
3919;DHT22;1974;48.670;8.994;2022-10-16T05:54:39;14.50;99.90
3919;DHT22;1974;48.670;8.994;2022-10-16T05:57:07;14.60;99.90
3919;DHT22;1974;48.670;8.994;2022-10-16T05:59:42;14.60;99.90
3919;DHT22;1974;48.670;8.994;2022-10-16T06:02:24;14.60;99.90
3919;DHT22;1974;48.670;8.994;2022-10-16T06:04:51;14.70;99.90
3919;DHT22;1974;48.670;8.994;2022-10-16T06:07:19;14.70;99.90
3919;DHT22;1974;48.670;8.994;2022-10-16T06:09:48;14.70;99.90
3919;DHT22;1974;48.670;8.994;2022-10-16T06:12:16;14.80;99.90
3919;DHT22;1974;48.670;8.994;2022-10-16T06:14:44;14.80;99.90
3919;DHT22;1974;48.670;8.994;2022-10-16T06:17:12;14.80;99.90
3919;DHT22;1974;48.670;8.994;2022-10-16T06:19:39;14.80;99.90
3919;DHT22;1974;48.670;8.994;2022-10-16T06:22:06;14.80;99.90
3919;DHT22;1974;48.670;8.994;2022-10-16T06:24:33;14.90;99.90
3919;DHT22;1974;48.670;8.994;2022-10-16T06:26:59;14.90;99.90
3919;DHT22;1974;48.670;8.994;2022-10-16T06:29:27;14.90;99.90
3919;DHT22;1974;48.670;8.994;2022-10-16T06:31:54;15.00;99.90
3919;DHT22;1974;48.670;8.994;2022-10-16T06:34:21;15.00;99.90
3919;DHT22;1974;48.670;8.994;2022-10-16T06:36:48;15.10;99.90
3919;DHT22;1974;48.670;8.994;2022-10-16T06:39:14;15.10;99.90
3919;DHT22;1974;48.670;8.994;2022-10-16T06:41:41;15.20;99.90
3919;DHT22;1974;48.670;8.994;2022-10-16T06:44:08;15.20;99.90
3919;DHT22;1974;48.670;8.994;2022-10-16T06:46:36;15.20;99.90
3919;DHT22;1974;48.670;8.994;2022-10-16T06:49:03;15.30;99.90
3919;DHT22;1974;48.670;8.994;2022-10-16T06:51:30;15.30;99.90
3919;DHT22;1974;48.670;8.994;2022-10-16T06:53:59;15.30;99.90
3919;DHT22;1974;48.670;8.994;2022-10-16T06:56:27;15.30;99.90
3919;DHT22;1974;48.670;8.994;2022-10-16T06:58:55;15.30;99.90
3919;DHT22;1974;48.670;8.994;2022-10-16T07:01:23;15.40;99.90
3919;DHT22;1974;48.670;8.994;2022-10-16T07:03:52;15.40;99.90
3919;DHT22;1974;48.670;8.994;2022-10-16T07:06:20;15.40;99.90
3919;DHT22;1974;48.670;8.994;2022-10-16T07:08:48;15.50;99.90
3919;DHT22;1974;48.670;8.994;2022-10-16T07:11:16;15.50;99.90
3919;DHT22;1974;48.670;8.994;2022-10-16T07:13:44;15.40;99.90
3919;DHT22;1974;48.670;8.994;2022-10-16T07:16:12;15.50;99.90
3919;DHT22;1974;48.670;8.994;2022-10-16T07:18:40;15.50;99.90
3919;DHT22;1974;48.670;8.994;2022-10-16T07:21:11;15.50;99.90
3919;DHT22;1974;48.670;8.994;2022-10-16T07:23:39;15.50;99.90
3919;DHT22;1974;48.670;8.994;2022-10-16T07:26:06;15.60;99.90
3919;DHT22;1974;48.670;8.994;2022-10-16T07:28:34;15.60;99.90
3919;DHT22;1974;48.670;8.994;2022-10-16T07:31:01;15.60;99.90
3919;DHT22;1974;48.670;8.994;2022-10-16T07:33:28;15.60;99.90
3919;DHT22;1974;48.670;8.994;2022-10-16T07:35:55;15.60;99.90
3919;DHT22;1974;48.670;8.994;2022-10-16T07:38:23;15.70;99.90
3919;DHT22;1974;48.670;8.994;2022-10-16T07:40:56;15.70;99.90
3919;DHT22;1974;48.670;8.994;2022-10-16T07:43:23;15.70;99.90
3919;DHT22;1974;48.670;8.994;2022-10-16T07:45:50;15.70;99.90
3919;DHT22;1974;48.670;8.994;2022-10-16T07:48:18;15.80;99.90
3919;DHT22;1974;48.670;8.994;2022-10-16T07:50:45;15.80;99.90
3919;DHT22;1974;48.670;8.994;2022-10-16T07:53:12;15.80;99.90
3919;DHT22;1974;48.670;8.994;2022-10-16T07:55:40;15.90;99.90
3919;DHT22;1974;48.670;8.994;2022-10-16T07:58:07;15.90;99.90
3919;DHT22;1974;48.670;8.994;2022-10-16T08:00:35;15.80;99.90
3919;DHT22;1974;48.670;8.994;2022-10-16T08:03:02;15.90;99.90
3919;DHT22;1974;48.670;8.994;2022-10-16T08:05:30;15.90;99.90
3919;DHT22;1974;48.670;8.994;2022-10-16T08:07:57;15.90;99.90
3919;DHT22;1974;48.670;8.994;2022-10-16T08:10:26;16.00;99.90
3919;DHT22;1974;48.670;8.994;2022-10-16T08:12:54;16.10;99.90
3919;DHT22;1974;48.670;8.994;2022-10-16T08:15:21;16.30;99.90
3919;DHT22;1974;48.670;8.994;2022-10-16T08:17:55;16.40;99.90
3919;DHT22;1974;48.670;8.994;2022-10-16T08:20:22;16.60;99.90
3919;DHT22;1974;48.670;8.994;2022-10-16T08:22:49;16.70;99.90
3919;DHT22;1974;48.670;8.994;2022-10-16T08:25:15;17.00;99.90
3919;DHT22;1974;48.670;8.994;2022-10-16T08:27:42;17.10;99.90
3919;DHT22;1974;48.670;8.994;2022-10-16T08:30:12;17.20;99.90
3919;DHT22;1974;48.670;8.994;2022-10-16T08:32:39;17.10;99.90
3919;DHT22;1974;48.670;8.994;2022-10-16T08:35:07;17.10;99.90
3919;DHT22;1974;48.670;8.994;2022-10-16T08:37:34;17.10;99.90
3919;DHT22;1974;48.670;8.994;2022-10-16T08:40:01;17.00;99.90
3919;DHT22;1974;48.670;8.994;2022-10-16T08:42:40;16.90;99.90
3919;DHT22;1974;48.670;8.994;2022-10-16T08:45:19;16.90;99.90
3919;DHT22;1974;48.670;8.994;2022-10-16T08:48:00;16.80;99.90
3919;DHT22;1974;48.670;8.994;2022-10-16T08:50:29;16.70;99.90
3919;DHT22;1974;48.670;8.994;2022-10-16T08:52:57;16.70;99.90
3919;DHT22;1974;48.670;8.994;2022-10-16T08:55:33;16.70;99.90
3919;DHT22;1974;48.670;8.994;2022-10-16T08:58:01;16.80;99.90
3919;DHT22;1974;48.670;8.994;2022-10-16T09:00:30;16.90;99.90
3919;DHT22;1974;48.670;8.994;2022-10-16T09:03:04;17.10;99.90
3919;DHT22;1974;48.670;8.994;2022-10-16T09:05:49;17.30;99.90
3919;DHT22;1974;48.670;8.994;2022-10-16T09:08:25;17.60;99.90
3919;DHT22;1974;48.670;8.994;2022-10-16T09:10:58;17.80;99.90
3919;DHT22;1974;48.670;8.994;2022-10-16T09:13:29;18.00;99.90
3919;DHT22;1974;48.670;8.994;2022-10-16T09:16:10;18.20;99.90
3919;DHT22;1974;48.670;8.994;2022-10-16T09:18:43;18.60;99.90
3919;DHT22;1974;48.670;8.994;2022-10-16T09:21:16;19.70;99.90
3919;DHT22;1974;48.670;8.994;2022-10-16T09:23:45;21.40;99.90
3919;DHT22;1974;48.670;8.994;2022-10-16T09:26:13;23.00;99.90
3919;DHT22;1974;48.670;8.994;2022-10-16T09:28:41;23.40;99.90
3919;DHT22;1974;48.670;8.994;2022-10-16T09:31:15;23.60;99.90
3919;DHT22;1974;48.670;8.994;2022-10-16T09:33:43;23.20;99.90
3919;DHT22;1974;48.670;8.994;2022-10-16T09:36:13;22.40;99.90
3919;DHT22;1974;48.670;8.994;2022-10-16T09:38:39;21.90;99.90
3919;DHT22;1974;48.670;8.994;2022-10-16T09:41:15;21.40;99.90
3919;DHT22;1974;48.670;8.994;2022-10-16T09:43:47;21.30;99.90
3919;DHT22;1974;48.670;8.994;2022-10-16T09:46:31;21.50;99.90
3919;DHT22;1974;48.670;8.994;2022-10-16T09:49:00;21.60;99.90
3919;DHT22;1974;48.670;8.994;2022-10-16T09:51:29;21.60;99.90
3919;DHT22;1974;48.670;8.994;2022-10-16T09:53:58;21.90;99.90
3919;DHT22;1974;48.670;8.994;2022-10-16T09:56:27;22.50;99.90
3919;DHT22;1974;48.670;8.994;2022-10-16T09:58:56;22.90;99.90
3919;DHT22;1974;48.670;8.994;2022-10-16T10:01:28;23.10;99.90
3919;DHT22;1974;48.670;8.994;2022-10-16T10:03:58;23.70;99.90
3919;DHT22;1974;48.670;8.994;2022-10-16T10:06:30;25.20;99.90
3919;DHT22;1974;48.670;8.994;2022-10-16T10:09:04;26.90;99.90
3919;DHT22;1974;48.670;8.994;2022-10-16T10:11:42;28.50;99.90
3919;DHT22;1974;48.670;8.994;2022-10-16T10:14:17;30.10;99.90
3919;DHT22;1974;48.670;8.994;2022-10-16T10:16:44;31.80;99.90
3919;DHT22;1974;48.670;8.994;2022-10-16T10:19:16;32.50;94.40
3919;DHT22;1974;48.670;8.994;2022-10-16T10:21:43;31.60;90.00
3919;DHT22;1974;48.670;8.994;2022-10-16T10:24:11;29.70;92.40
3919;DHT22;1974;48.670;8.994;2022-10-16T10:26:39;28.30;94.50
3919;DHT22;1974;48.670;8.994;2022-10-16T10:29:13;26.90;96.80
3919;DHT22;1974;48.670;8.994;2022-10-16T10:31:47;25.90;99.70
3919;DHT22;1974;48.670;8.994;2022-10-16T10:37:22;24.20;99.90
3919;DHT22;1974;48.670;8.994;2022-10-16T10:40:00;23.80;99.90
3919;DHT22;1974;48.670;8.994;2022-10-16T10:42:35;23.60;99.90
3919;DHT22;1974;48.670;8.994;2022-10-16T10:45:20;23.50;99.90
3919;DHT22;1974;48.670;8.994;2022-10-16T10:48:03;23.80;99.90
3919;DHT22;1974;48.670;8.994;2022-10-16T10:50:39;23.80;99.90
3919;DHT22;1974;48.670;8.994;2022-10-16T10:53:18;23.70;99.90
3919;DHT22;1974;48.670;8.994;2022-10-16T10:55:54;23.50;99.90
3919;DHT22;1974;48.670;8.994;2022-10-16T10:58:42;23.60;99.90
3919;DHT22;1974;48.670;8.994;2022-10-16T11:01:13;23.50;99.90
3919;DHT22;1974;48.670;8.994;2022-10-16T11:03:57;23.30;99.90
3919;DHT22;1974;48.670;8.994;2022-10-16T11:06:28;23.30;99.90
3919;DHT22;1974;48.670;8.994;2022-10-16T11:09:02;23.10;99.90
3919;DHT22;1974;48.670;8.994;2022-10-16T11:11:36;22.90;99.90
3919;DHT22;1974;48.670;8.994;2022-10-16T11:14:11;22.90;99.90
3919;DHT22;1974;48.670;8.994;2022-10-16T11:16:44;22.70;99.90
3919;DHT22;1974;48.670;8.994;2022-10-16T11:19:18;22.70;99.90
3919;DHT22;1974;48.670;8.994;2022-10-16T11:21:54;22.80;99.90
3919;DHT22;1974;48.670;8.994;2022-10-16T11:24:26;23.10;99.90
3919;DHT22;1974;48.670;8.994;2022-10-16T11:27:02;23.30;99.90
3919;DHT22;1974;48.670;8.994;2022-10-16T11:29:31;23.30;99.90
3919;DHT22;1974;48.670;8.994;2022-10-16T11:32:01;23.30;99.90
3919;DHT22;1974;48.670;8.994;2022-10-16T11:34:35;23.30;99.90
3919;DHT22;1974;48.670;8.994;2022-10-16T11:37:10;23.30;99.90
3919;DHT22;1974;48.670;8.994;2022-10-16T11:39:39;23.30;99.90
3919;DHT22;1974;48.670;8.994;2022-10-16T11:42:11;23.20;99.90
3919;DHT22;1974;48.670;8.994;2022-10-16T11:44:48;23.00;99.90
3919;DHT22;1974;48.670;8.994;2022-10-16T11:47:26;22.70;99.90
3919;DHT22;1974;48.670;8.994;2022-10-16T11:49:58;22.60;99.90
3919;DHT22;1974;48.670;8.994;2022-10-16T11:52:33;22.60;99.90
3919;DHT22;1974;48.670;8.994;2022-10-16T11:55:08;22.50;99.90
3919;DHT22;1974;48.670;8.994;2022-10-16T11:57:42;22.50;99.90
3919;DHT22;1974;48.670;8.994;2022-10-16T12:00:21;22.30;99.90
3919;DHT22;1974;48.670;8.994;2022-10-16T12:02:59;22.20;99.90
3919;DHT22;1974;48.670;8.994;2022-10-16T12:05:39;22.10;99.90
3919;DHT22;1974;48.670;8.994;2022-10-16T12:08:15;22.10;99.90
3919;DHT22;1974;48.670;8.994;2022-10-16T12:10:44;22.10;99.90
3919;DHT22;1974;48.670;8.994;2022-10-16T12:13:31;22.20;99.90
3919;DHT22;1974;48.670;8.994;2022-10-16T12:16:20;22.30;99.90
3919;DHT22;1974;48.670;8.994;2022-10-16T12:18:48;22.40;99.90
3919;DHT22;1974;48.670;8.994;2022-10-16T12:21:16;22.50;99.90
3919;DHT22;1974;48.670;8.994;2022-10-16T12:23:50;22.60;99.90
3919;DHT22;1974;48.670;8.994;2022-10-16T12:26:27;22.60;99.90
3919;DHT22;1974;48.670;8.994;2022-10-16T12:28:55;22.60;99.90
3919;DHT22;1974;48.670;8.994;2022-10-16T12:31:23;22.60;99.90
3919;DHT22;1974;48.670;8.994;2022-10-16T12:34:03;22.50;99.90
3919;DHT22;1974;48.670;8.994;2022-10-16T12:36:32;22.50;99.90
3919;DHT22;1974;48.670;8.994;2022-10-16T12:39:01;22.30;99.90
3919;DHT22;1974;48.670;8.994;2022-10-16T12:41:30;22.10;99.90
3919;DHT22;1974;48.670;8.994;2022-10-16T12:43:58;22.00;99.90
3919;DHT22;1974;48.670;8.994;2022-10-16T12:46:38;22.00;99.90
3919;DHT22;1974;48.670;8.994;2022-10-16T12:49:19;22.00;99.90
3919;DHT22;1974;48.670;8.994;2022-10-16T12:51:47;22.00;99.90
3919;DHT22;1974;48.670;8.994;2022-10-16T12:54:17;22.10;99.90
3919;DHT22;1974;48.670;8.994;2022-10-16T12:56:53;22.00;99.90
3919;DHT22;1974;48.670;8.994;2022-10-16T12:59:31;22.00;99.90
3919;DHT22;1974;48.670;8.994;2022-10-16T13:05:03;22.10;99.90
3919;DHT22;1974;48.670;8.994;2022-10-16T13:07:46;22.10;99.90
3919;DHT22;1974;48.670;8.994;2022-10-16T13:10:22;22.10;99.90
3919;DHT22;1974;48.670;8.994;2022-10-16T13:13:13;22.10;99.90
3919;DHT22;1974;48.670;8.994;2022-10-16T13:15:54;22.10;99.90
3919;DHT22;1974;48.670;8.994;2022-10-16T13:18:28;22.20;99.90
3919;DHT22;1974;48.670;8.994;2022-10-16T13:21:08;22.20;99.90
3919;DHT22;1974;48.670;8.994;2022-10-16T13:23:48;22.20;99.90
3919;DHT22;1974;48.670;8.994;2022-10-16T13:26:25;22.10;99.90
3919;DHT22;1974;48.670;8.994;2022-10-16T13:28:59;22.10;99.90
3919;DHT22;1974;48.670;8.994;2022-10-16T13:31:26;22.10;99.90
3919;DHT22;1974;48.670;8.994;2022-10-16T13:33:55;22.10;99.90
3919;DHT22;1974;48.670;8.994;2022-10-16T13:36:26;22.20;99.90
3919;DHT22;1974;48.670;8.994;2022-10-16T13:39:10;22.20;99.90
3919;DHT22;1974;48.670;8.994;2022-10-16T13:41:39;22.20;99.90
3919;DHT22;1974;48.670;8.994;2022-10-16T13:44:13;22.20;99.90
3919;DHT22;1974;48.670;8.994;2022-10-16T13:46:41;22.10;99.90
3919;DHT22;1974;48.670;8.994;2022-10-16T13:49:12;22.00;99.90
3919;DHT22;1974;48.670;8.994;2022-10-16T13:51:39;21.90;99.90
3919;DHT22;1974;48.670;8.994;2022-10-16T13:54:09;21.80;99.90
3919;DHT22;1974;48.670;8.994;2022-10-16T13:56:38;21.80;99.90
3919;DHT22;1974;48.670;8.994;2022-10-16T13:59:20;21.70;99.90
3919;DHT22;1974;48.670;8.994;2022-10-16T14:01:49;21.70;99.90
3919;DHT22;1974;48.670;8.994;2022-10-16T14:04:17;21.70;99.90
3919;DHT22;1974;48.670;8.994;2022-10-16T14:06:45;21.70;99.90
3919;DHT22;1974;48.670;8.994;2022-10-16T14:09:21;21.70;99.90
3919;DHT22;1974;48.670;8.994;2022-10-16T14:11:51;21.70;99.90
3919;DHT22;1974;48.670;8.994;2022-10-16T14:14:20;21.60;99.90
3919;DHT22;1974;48.670;8.994;2022-10-16T14:16:48;21.60;99.90
3919;DHT22;1974;48.670;8.994;2022-10-16T14:19:19;21.60;99.90
3919;DHT22;1974;48.670;8.994;2022-10-16T14:21:46;21.60;99.90
3919;DHT22;1974;48.670;8.994;2022-10-16T14:24:21;21.60;99.90
3919;DHT22;1974;48.670;8.994;2022-10-16T14:26:49;21.50;99.90
3919;DHT22;1974;48.670;8.994;2022-10-16T14:29:19;21.50;99.90
3919;DHT22;1974;48.670;8.994;2022-10-16T14:31:54;21.50;99.90
3919;DHT22;1974;48.670;8.994;2022-10-16T14:34:27;21.60;99.90
3919;DHT22;1974;48.670;8.994;2022-10-16T14:36:56;21.60;99.90
3919;DHT22;1974;48.670;8.994;2022-10-16T14:39:24;21.60;99.90
3919;DHT22;1974;48.670;8.994;2022-10-16T14:41:52;21.50;99.90
3919;DHT22;1974;48.670;8.994;2022-10-16T14:44:27;21.50;99.90
3919;DHT22;1974;48.670;8.994;2022-10-16T14:46:54;21.50;99.90
3919;DHT22;1974;48.670;8.994;2022-10-16T14:49:22;21.40;99.90
3919;DHT22;1974;48.670;8.994;2022-10-16T14:51:50;21.30;99.90
3919;DHT22;1974;48.670;8.994;2022-10-16T14:54:18;21.20;99.90
3919;DHT22;1974;48.670;8.994;2022-10-16T14:56:48;21.10;99.90
3919;DHT22;1974;48.670;8.994;2022-10-16T14:59:19;21.00;99.90
3919;DHT22;1974;48.670;8.994;2022-10-16T15:01:47;21.00;99.90
3919;DHT22;1974;48.670;8.994;2022-10-16T15:04:14;21.00;99.90
3919;DHT22;1974;48.670;8.994;2022-10-16T15:06:42;20.90;99.90
3919;DHT22;1974;48.670;8.994;2022-10-16T15:09:08;20.90;99.90
3919;DHT22;1974;48.670;8.994;2022-10-16T15:11:35;20.90;99.90
3919;DHT22;1974;48.670;8.994;2022-10-16T15:14:02;20.80;99.90
3919;DHT22;1974;48.670;8.994;2022-10-16T15:16:30;20.80;99.90
3919;DHT22;1974;48.670;8.994;2022-10-16T15:18:58;20.80;99.90
3919;DHT22;1974;48.670;8.994;2022-10-16T15:21:27;20.70;99.90
3919;DHT22;1974;48.670;8.994;2022-10-16T15:23:55;20.70;99.90
3919;DHT22;1974;48.670;8.994;2022-10-16T15:26:23;20.70;99.90
3919;DHT22;1974;48.670;8.994;2022-10-16T15:28:49;20.60;99.90
3919;DHT22;1974;48.670;8.994;2022-10-16T15:31:16;20.50;99.90
3919;DHT22;1974;48.670;8.994;2022-10-16T15:33:43;20.50;99.90
3919;DHT22;1974;48.670;8.994;2022-10-16T15:36:14;20.40;99.90
3919;DHT22;1974;48.670;8.994;2022-10-16T15:38:41;20.30;99.90
3919;DHT22;1974;48.670;8.994;2022-10-16T15:41:07;20.30;99.90
3919;DHT22;1974;48.670;8.994;2022-10-16T15:43:34;20.20;99.90
3919;DHT22;1974;48.670;8.994;2022-10-16T15:46:03;20.10;99.90
3919;DHT22;1974;48.670;8.994;2022-10-16T15:48:31;20.10;99.90
3919;DHT22;1974;48.670;8.994;2022-10-16T15:50:58;20.10;99.90
3919;DHT22;1974;48.670;8.994;2022-10-16T15:53:27;20.00;99.90
3919;DHT22;1974;48.670;8.994;2022-10-16T15:55:53;20.00;99.90
3919;DHT22;1974;48.670;8.994;2022-10-16T15:58:20;19.90;99.90
3919;DHT22;1974;48.670;8.994;2022-10-16T16:00:54;19.80;99.90
3919;DHT22;1974;48.670;8.994;2022-10-16T16:03:21;19.70;99.90
3919;DHT22;1974;48.670;8.994;2022-10-16T16:05:47;19.60;99.90
3919;DHT22;1974;48.670;8.994;2022-10-16T16:08:14;19.50;99.90
3919;DHT22;1974;48.670;8.994;2022-10-16T16:10:43;19.40;99.90
3919;DHT22;1974;48.670;8.994;2022-10-16T16:13:10;19.40;99.90
3919;DHT22;1974;48.670;8.994;2022-10-16T16:15:38;19.30;99.90
3919;DHT22;1974;48.670;8.994;2022-10-16T16:18:05;19.30;99.90
3919;DHT22;1974;48.670;8.994;2022-10-16T16:20:32;19.30;99.90
3919;DHT22;1974;48.670;8.994;2022-10-16T16:22:58;19.30;99.90
3919;DHT22;1974;48.670;8.994;2022-10-16T16:25:25;19.30;99.90